createdAt,value
2018-09-17T00:00:03.454Z,59.38
2018-09-17T00:02:31.922Z,59.09
2018-09-17T00:05:00.487Z,59.08
2018-09-17T00:07:29.372Z,59.41
2018-09-17T00:09:57.980Z,59.49
2018-09-17T00:12:26.421Z,59.68
2018-09-17T00:14:54.897Z,59.70
2018-09-17T00:17:23.485Z,59.52
2018-09-17T00:19:52.073Z,59.22
2018-09-17T00:22:20.537Z,59.10
2018-09-17T00:24:49.488Z,59.45
2018-09-17T00:27:20.433Z,59.10
2018-09-17T00:29:48.929Z,59.46
2018-09-17T00:32:17.398Z,60.00
2018-09-17T00:34:45.926Z,59.69
2018-09-17T00:37:14.394Z,60.16
2018-09-17T00:39:43.137Z,59.93
2018-09-17T00:42:12.385Z,60.56
2018-09-17T00:44:40.842Z,60.44
2018-09-17T00:47:09.319Z,60.74
2018-09-17T00:49:38.493Z,60.89
2018-09-17T00:52:07.478Z,60.77
2018-09-17T00:54:36.812Z,61.16
2018-09-17T00:57:05.782Z,61.27
2018-09-17T00:59:34.767Z,61.75
2018-09-17T01:02:07.402Z,61.48
2018-09-17T01:04:36.616Z,61.57
2018-09-17T01:07:06.027Z,61.82
2018-09-17T01:09:39.812Z,62.28
2018-09-17T01:12:09.465Z,61.96
2018-09-17T01:14:38.010Z,62.13
2018-09-17T01:17:06.721Z,62.10
2018-09-17T01:19:35.230Z,62.34
2018-09-17T01:22:04.495Z,62.76
2018-09-17T01:24:33.237Z,62.63
2018-09-17T01:27:02.913Z,62.18
2018-09-17T01:29:31.484Z,61.61
2018-09-17T01:32:00.415Z,60.99
2018-09-17T01:34:28.868Z,60.88
2018-09-17T01:36:57.991Z,61.08
2018-09-17T01:39:27.238Z,61.17
2018-09-17T01:41:58.230Z,61.29
2018-09-17T01:44:26.745Z,61.21
2018-09-17T01:46:55.187Z,61.51
2018-09-17T01:49:24.866Z,61.83
2018-09-17T01:51:53.923Z,62.04
2018-09-17T01:54:22.622Z,61.82
2018-09-17T01:56:51.435Z,62.21
2018-09-17T01:59:20.108Z,62.34
2018-09-17T02:01:48.568Z,62.41
2018-09-17T02:04:17.021Z,62.48
2018-09-17T02:06:46.107Z,62.19
2018-09-17T02:09:15.371Z,62.22
2018-09-17T02:11:44.828Z,62.48
2018-09-17T02:14:13.291Z,62.60
2018-09-17T02:16:41.937Z,62.67
2018-09-17T02:19:10.569Z,63.30
2018-09-17T02:21:39.295Z,63.14
2018-09-17T02:24:07.747Z,63.11
2018-09-17T02:26:37.103Z,63.08
2018-09-17T02:29:06.155Z,63.35
2018-09-17T02:31:35.512Z,63.44
2018-09-17T02:34:04.655Z,63.50
2018-09-17T02:36:33.972Z,63.53
2018-09-17T02:39:02.531Z,63.43
2018-09-17T02:41:33.659Z,63.49
2018-09-17T02:44:02.161Z,63.65
2018-09-17T02:46:30.840Z,64.02
2018-09-17T02:48:59.266Z,63.70
2018-09-17T02:51:28.380Z,63.08
2018-09-17T02:53:57.123Z,63.29
2018-09-17T02:56:25.749Z,63.33
2018-09-17T02:58:54.330Z,63.60
2018-09-17T03:01:22.811Z,64.01
2018-09-17T03:03:51.613Z,64.88
2018-09-17T03:06:20.605Z,65.16
2018-09-17T03:08:49.251Z,64.88
2018-09-17T03:11:19.019Z,65.15
2018-09-17T03:13:47.441Z,64.87
2018-09-17T03:16:15.974Z,65.39
2018-09-17T03:18:51.214Z,65.54
2018-09-17T03:21:19.741Z,65.71
2018-09-17T03:23:48.625Z,65.62
2018-09-17T03:26:18.129Z,65.20
2018-09-17T03:28:47.146Z,65.35
2018-09-17T03:31:16.252Z,65.28
2018-09-17T03:33:44.703Z,65.14
2018-09-17T03:36:14.142Z,64.74
2018-09-17T03:38:47.669Z,64.69
2018-09-17T03:41:16.905Z,64.51
2018-09-17T03:43:48.565Z,64.64
2018-09-17T03:46:17.824Z,64.45
2018-09-17T03:48:46.940Z,64.32
2018-09-17T03:51:15.742Z,64.19
2018-09-17T03:53:44.339Z,64.13
2018-09-17T03:56:12.782Z,64.07
2018-09-17T03:58:41.419Z,64.30
2018-09-17T04:01:10.632Z,64.66
2018-09-17T04:03:39.040Z,64.40
2018-09-17T04:06:08.240Z,64.69
2018-09-17T04:08:37.027Z,64.99
2018-09-17T04:11:06.053Z,65.32
2018-09-17T04:13:34.515Z,65.14
2018-09-17T04:16:03.998Z,65.37
2018-09-17T04:18:32.412Z,65.58
2018-09-17T04:21:01.450Z,65.68
2018-09-17T04:23:35.984Z,66.04
2018-09-17T04:26:08.896Z,66.20
2018-09-17T04:28:37.935Z,65.95
2018-09-17T04:31:07.048Z,66.09
2018-09-17T04:33:40.931Z,66.63
2018-09-17T04:36:10.712Z,66.30
2018-09-17T04:38:39.955Z,66.40
2018-09-17T04:41:08.529Z,66.66
2018-09-17T04:43:36.911Z,66.70
2018-09-17T04:46:05.570Z,67.04
2018-09-17T04:48:34.789Z,67.46
2018-09-17T04:51:04.053Z,67.38
2018-09-17T04:53:32.548Z,67.63
2018-09-17T04:56:01.440Z,67.18
2018-09-17T04:58:30.265Z,66.67
2018-09-17T05:00:58.637Z,66.20
2018-09-17T05:03:27.238Z,66.03
2018-09-17T05:05:56.373Z,66.26
2018-09-17T05:08:24.839Z,66.17
2018-09-17T05:10:53.967Z,66.16
2018-09-17T05:13:22.580Z,66.50
2018-09-17T05:15:51.628Z,66.70
2018-09-17T05:18:20.120Z,67.04
2018-09-17T05:20:48.579Z,67.87
2018-09-17T05:23:17.051Z,67.66
2018-09-17T05:25:45.568Z,67.58
2018-09-17T05:28:13.982Z,67.38
2018-09-17T05:30:42.500Z,67.10
2018-09-17T05:33:11.364Z,66.30
2018-09-17T05:35:39.781Z,66.14
2018-09-17T05:38:08.308Z,66.18
2018-09-17T05:40:36.904Z,66.39
2018-09-17T05:43:05.494Z,66.49
2018-09-17T05:45:34.713Z,66.25
2018-09-17T05:48:03.199Z,65.91
2018-09-17T05:50:32.388Z,64.86
2018-09-17T05:53:00.911Z,63.66
2018-09-17T05:55:30.973Z,62.26
2018-09-17T05:57:59.962Z,60.66
2018-09-17T06:00:29.232Z,59.86
2018-09-17T06:02:58.484Z,60.29
2018-09-17T06:05:27.402Z,61.19
2018-09-17T06:07:55.939Z,62.60
2018-09-17T06:10:24.419Z,63.15
2018-09-17T06:12:53.568Z,63.60
2018-09-17T06:15:26.652Z,64.05
2018-09-17T06:17:55.060Z,64.45
2018-09-17T06:20:24.409Z,64.33
2018-09-17T06:22:53.459Z,64.15
2018-09-17T06:25:21.968Z,63.86
2018-09-17T06:27:50.542Z,63.58
2018-09-17T06:30:19.188Z,63.53
2018-09-17T06:32:47.592Z,63.43
2018-09-17T06:35:16.236Z,63.98
2018-09-17T06:37:44.677Z,64.14
2018-09-17T06:40:13.252Z,64.28
2018-09-17T06:42:42.558Z,64.07
2018-09-17T06:45:11.723Z,63.67
2018-09-17T06:47:40.153Z,61.53
2018-09-17T06:50:09.349Z,60.61
2018-09-17T06:52:38.578Z,58.56
2018-09-17T06:55:07.002Z,54.78
2018-09-17T06:57:36.135Z,50.57
2018-09-17T07:00:05.180Z,46.33
2018-09-17T07:02:33.984Z,44.37
2018-09-17T07:05:02.455Z,41.97
2018-09-17T07:07:31.046Z,40.13
2018-09-17T07:09:59.530Z,38.90
2018-09-17T07:12:28.356Z,37.45
2018-09-17T07:14:56.876Z,35.74
2018-09-17T07:17:25.542Z,35.70
2018-09-17T07:19:54.327Z,35.09
2018-09-17T07:22:22.750Z,34.34
2018-09-17T07:24:51.247Z,33.05
2018-09-17T07:27:20.322Z,32.57
2018-09-17T07:29:49.040Z,30.97
2018-09-17T07:32:17.746Z,30.90
2018-09-17T07:34:46.957Z,31.00
2018-09-17T07:37:15.498Z,30.09
2018-09-17T07:39:44.221Z,29.50
2018-09-17T07:42:12.943Z,28.68
2018-09-17T07:44:42.190Z,27.63
2018-09-17T07:47:12.346Z,27.65
2018-09-17T07:49:41.490Z,27.46
2018-09-17T07:52:09.995Z,26.75
2018-09-17T07:54:38.434Z,25.94
2018-09-17T07:57:06.928Z,26.69
2018-09-17T07:59:35.459Z,26.08
2018-09-17T08:02:04.446Z,25.94
2018-09-17T08:04:33.517Z,25.86
2018-09-17T08:07:02.145Z,25.27
2018-09-17T08:09:30.631Z,24.54
2018-09-17T08:11:59.155Z,23.21
2018-09-17T08:14:27.648Z,23.01
2018-09-17T08:16:57.063Z,22.47
2018-09-17T08:19:25.569Z,22.16
2018-09-17T08:21:54.069Z,21.13
2018-09-17T08:24:22.890Z,21.02
2018-09-17T08:26:51.384Z,20.55
2018-09-17T08:29:19.965Z,20.49
2018-09-17T08:31:48.976Z,20.22
2018-09-17T08:34:17.469Z,19.86
2018-09-17T08:36:46.544Z,20.14
2018-09-17T08:39:15.725Z,19.31
2018-09-17T08:41:45.148Z,19.54
2018-09-17T08:44:13.711Z,19.07
2018-09-17T08:46:42.225Z,18.53
2018-09-17T08:49:10.756Z,17.98
2018-09-17T08:51:40.117Z,17.67
2018-09-17T08:54:08.719Z,17.46
2018-09-17T08:56:42.393Z,17.60
2018-09-17T08:59:16.678Z,16.95
2018-09-17T09:01:50.335Z,16.71
2018-09-17T09:04:24.123Z,16.67
2018-09-17T09:06:59.578Z,15.95
2018-09-17T09:09:28.132Z,15.92
2018-09-17T09:12:01.632Z,16.09
2018-09-17T09:14:39.654Z,15.71
2018-09-17T09:17:09.456Z,16.25
2018-09-17T09:19:38.331Z,15.71
2018-09-17T09:22:07.128Z,15.89
2018-09-17T09:24:36.974Z,15.49
2018-09-17T09:27:05.444Z,15.65
2018-09-17T09:29:33.916Z,15.91
2018-09-17T09:32:02.969Z,15.38
2018-09-17T09:34:31.886Z,14.91
2018-09-17T09:37:00.633Z,14.54
2018-09-17T09:39:29.812Z,14.80
2018-09-17T09:41:59.438Z,14.41
2018-09-17T09:44:28.059Z,14.26
2018-09-17T09:46:56.620Z,14.04
2018-09-17T09:49:25.167Z,13.97
2018-09-17T09:51:53.691Z,13.15
2018-09-17T09:54:22.441Z,13.41
2018-09-17T09:56:51.659Z,13.50
2018-09-17T09:59:20.155Z,13.06
2018-09-17T10:04:02.250Z,13.09
2018-09-17T10:06:30.763Z,13.36
2018-09-17T10:09:04.524Z,13.22
2018-09-17T10:11:38.425Z,13.09
2018-09-17T10:14:12.790Z,13.58
2018-09-17T10:16:45.748Z,13.59
2018-09-17T10:19:20.763Z,13.51
2018-09-17T10:21:49.325Z,12.74
2018-09-17T10:24:18.216Z,12.48
2018-09-17T10:26:47.733Z,11.30
2018-09-17T10:29:16.925Z,11.71
2018-09-17T10:31:45.738Z,10.34
2018-09-17T10:34:14.527Z,11.24
2018-09-17T10:36:43.712Z,12.40
2018-09-17T10:39:13.946Z,12.52
2018-09-17T10:41:42.887Z,12.32
2018-09-17T10:44:11.349Z,11.88
2018-09-17T10:46:40.607Z,11.47
2018-09-17T10:49:09.592Z,11.39
2018-09-17T10:51:39.091Z,11.17
2018-09-17T10:54:07.630Z,10.87
2018-09-17T10:56:36.655Z,10.54
2018-09-17T10:59:05.950Z,10.01
2018-09-17T11:01:34.479Z,9.86
2018-09-17T11:04:09.338Z,9.73
2018-09-17T11:06:38.054Z,9.59
2018-09-17T11:09:09.101Z,10.16
2018-09-17T11:11:37.593Z,9.66
2018-09-17T11:14:06.312Z,9.54
2018-09-17T11:16:34.772Z,9.12
2018-09-17T11:19:03.807Z,9.42
2018-09-17T11:21:32.334Z,7.82
2018-09-17T11:24:00.891Z,9.43
2018-09-17T11:26:29.507Z,9.42
2018-09-17T11:28:58.742Z,8.49
2018-09-17T11:31:27.953Z,8.37
2018-09-17T11:33:57.931Z,8.08
2018-09-17T11:36:26.730Z,7.81
2018-09-17T11:38:55.314Z,8.77
2018-09-17T11:41:23.907Z,7.69
2018-09-17T11:43:53.172Z,7.72
2018-09-17T11:46:22.464Z,7.48
2018-09-17T11:48:50.962Z,7.52
2018-09-17T11:51:19.370Z,8.17
2018-09-17T11:53:47.968Z,8.62
2018-09-17T11:56:17.177Z,7.79
2018-09-17T11:58:46.845Z,8.05
2018-09-17T12:01:21.364Z,8.58
2018-09-17T12:03:55.106Z,8.59
2018-09-17T12:06:36.892Z,8.20
2018-09-17T12:09:08.101Z,7.63
2018-09-17T12:11:36.594Z,7.35
2018-09-17T12:14:05.085Z,6.52
2018-09-17T12:16:33.604Z,7.19
2018-09-17T12:19:02.692Z,6.90
2018-09-17T12:21:31.378Z,7.08
2018-09-17T12:23:59.920Z,7.56
2018-09-17T12:26:28.319Z,8.29
2018-09-17T12:28:57.187Z,8.21
2018-09-17T12:31:26.093Z,8.37
2018-09-17T12:33:54.882Z,7.41
2018-09-17T12:36:23.273Z,7.54
2018-09-17T12:38:52.211Z,7.10
2018-09-17T12:41:21.528Z,7.27
2018-09-17T12:43:50.799Z,6.78
2018-09-17T12:46:19.841Z,6.63
2018-09-17T12:48:48.329Z,6.57
2018-09-17T12:51:16.749Z,6.20
2018-09-17T12:53:46.018Z,6.51
2018-09-17T12:56:14.484Z,6.68
2018-09-17T12:58:43.030Z,6.36
2018-09-17T13:01:12.653Z,6.89
2018-09-17T13:03:41.181Z,7.23
2018-09-17T13:06:09.767Z,7.33
2018-09-17T13:08:38.377Z,7.23
2018-09-17T13:11:06.831Z,7.61
2018-09-17T13:13:38.040Z,8.14
2018-09-17T13:16:08.122Z,8.17
2018-09-17T13:18:37.585Z,8.90
2018-09-17T13:21:06.108Z,10.06
2018-09-17T13:23:34.627Z,11.36
2018-09-17T13:26:03.152Z,11.66
2018-09-17T13:28:32.598Z,12.83
2018-09-17T13:31:01.532Z,13.13
2018-09-17T13:33:30.033Z,13.12
2018-09-17T13:35:58.646Z,13.03
2018-09-17T13:38:27.414Z,13.67
2018-09-17T13:40:56.609Z,13.68
2018-09-17T13:43:25.151Z,13.85
2018-09-17T13:45:54.223Z,13.36
2018-09-17T13:48:23.427Z,13.65
2018-09-17T13:50:52.740Z,13.52
2018-09-17T13:53:21.314Z,13.06
2018-09-17T13:55:50.332Z,12.60
2018-09-17T13:58:18.890Z,13.07
2018-09-17T14:00:47.692Z,12.98
2018-09-17T14:03:16.309Z,13.37
2018-09-17T14:05:45.495Z,13.26
2018-09-17T14:08:14.947Z,12.95
2018-09-17T14:10:43.534Z,12.27
2018-09-17T14:13:12.583Z,12.93
2018-09-17T14:15:45.209Z,12.70
2018-09-17T14:18:14.416Z,12.64
2018-09-17T14:20:43.002Z,13.81
2018-09-17T14:23:11.837Z,13.33
2018-09-17T14:25:41.115Z,12.16
2018-09-17T14:28:09.723Z,12.95
2018-09-17T14:30:38.386Z,13.56
2018-09-17T14:33:13.175Z,13.06
2018-09-17T14:35:41.717Z,13.15
2018-09-17T14:38:10.156Z,12.77
2018-09-17T14:40:39.819Z,12.88
2018-09-17T14:43:08.769Z,13.23
2018-09-17T14:45:37.253Z,13.55
2018-09-17T14:48:05.817Z,13.86
2018-09-17T14:50:34.699Z,13.80
2018-09-17T14:53:03.862Z,14.51
2018-09-17T14:55:33.130Z,15.03
2018-09-17T14:58:01.667Z,15.01
2018-09-17T15:00:30.808Z,15.65
2018-09-17T15:02:59.314Z,16.18
2018-09-17T15:05:28.096Z,16.02
2018-09-17T15:07:56.631Z,16.21
2018-09-17T15:10:25.756Z,16.58
2018-09-17T15:12:54.168Z,17.58
2018-09-17T15:15:23.280Z,17.37
2018-09-17T15:17:51.729Z,17.81
2018-09-17T15:20:20.899Z,18.12
2018-09-17T15:22:49.387Z,17.87
2018-09-17T15:25:17.871Z,18.30
2018-09-17T15:27:46.566Z,17.89
2018-09-17T15:30:15.806Z,18.24
2018-09-17T15:32:45.516Z,19.12
2018-09-17T15:35:14.162Z,19.15
2018-09-17T15:37:42.691Z,18.32
2018-09-17T15:40:11.283Z,19.55
2018-09-17T15:42:40.047Z,19.71
2018-09-17T15:45:09.502Z,19.11
2018-09-17T15:47:37.986Z,20.33
2018-09-17T15:50:06.619Z,19.99
2018-09-17T15:52:36.122Z,19.56
2018-09-17T15:55:05.357Z,20.36
2018-09-17T15:57:34.295Z,20.42
2018-09-17T16:00:02.769Z,20.72
2018-09-17T16:02:31.278Z,20.27
2018-09-17T16:04:59.750Z,21.20
2018-09-17T16:07:28.248Z,21.29
2018-09-17T16:09:56.764Z,21.27
2018-09-17T16:12:25.357Z,21.06
2018-09-17T16:14:53.886Z,20.77
2018-09-17T16:17:22.304Z,20.63
2018-09-17T16:19:51.043Z,22.19
2018-09-17T16:22:19.476Z,22.22
2018-09-17T16:24:48.457Z,21.96
2018-09-17T16:27:16.900Z,23.12
2018-09-17T16:29:46.155Z,22.27
2018-09-17T16:32:15.852Z,22.71
2018-09-17T16:34:44.409Z,23.24
2018-09-17T16:37:14.006Z,23.37
2018-09-17T16:39:42.439Z,23.07
2018-09-17T16:42:10.918Z,23.06
2018-09-17T16:44:40.176Z,23.83
2018-09-17T16:47:08.848Z,24.30
2018-09-17T16:49:37.466Z,24.56
2018-09-17T16:52:06.096Z,24.99
2018-09-17T16:54:34.610Z,25.21
2018-09-17T16:57:04.047Z,25.10
2018-09-17T16:59:33.309Z,25.37
2018-09-17T17:02:02.362Z,25.64
2018-09-17T17:04:31.739Z,26.42
2018-09-17T17:07:00.861Z,26.08
2018-09-17T17:09:37.061Z,26.98
2018-09-17T17:12:05.568Z,27.25
2018-09-17T17:14:34.038Z,27.55
2018-09-17T17:17:02.577Z,27.39
2018-09-17T17:19:31.050Z,27.58
2018-09-17T17:22:00.376Z,27.67
2018-09-17T17:24:28.879Z,28.13
2018-09-17T17:26:57.403Z,28.19
2018-09-17T17:29:26.013Z,28.04
2018-09-17T17:31:54.666Z,28.93
2018-09-17T17:34:23.556Z,29.64
2018-09-17T17:36:51.963Z,30.46
2018-09-17T17:39:21.266Z,30.68
2018-09-17T17:41:50.300Z,31.35
2018-09-17T17:44:19.695Z,31.11
2018-09-17T17:46:48.912Z,31.73
2018-09-17T17:49:18.151Z,32.12
2018-09-17T17:51:47.584Z,31.91
2018-09-17T17:54:16.791Z,32.03
2018-09-17T17:56:45.305Z,32.39
2018-09-17T17:59:14.175Z,32.76
2018-09-17T18:01:43.531Z,33.26
2018-09-17T18:04:12.134Z,33.24
2018-09-17T18:06:40.892Z,33.27
2018-09-17T18:09:10.678Z,33.94
2018-09-17T18:11:39.608Z,34.07
2018-09-17T18:14:08.229Z,33.82
2018-09-17T18:16:37.484Z,34.61
2018-09-17T18:19:06.127Z,34.03
2018-09-17T18:21:34.719Z,34.35
2018-09-17T18:24:03.885Z,34.75
2018-09-17T18:26:33.008Z,35.06
2018-09-17T18:29:02.091Z,34.88
2018-09-17T18:31:31.402Z,35.21
2018-09-17T18:34:00.749Z,35.47
2018-09-17T18:36:29.232Z,35.32
2018-09-17T18:38:57.960Z,35.65
2018-09-17T18:41:27.210Z,36.45
2018-09-17T18:43:55.731Z,36.64
2018-09-17T18:46:25.048Z,36.69
2018-09-17T18:48:53.549Z,36.64
2018-09-17T18:51:22.217Z,36.55
2018-09-17T18:53:51.364Z,37.03
2018-09-17T18:56:20.867Z,37.05
2018-09-17T18:58:50.021Z,37.54
2018-09-17T19:01:19.432Z,37.14
2018-09-17T19:03:48.781Z,37.66
2018-09-17T19:06:17.390Z,37.70
2018-09-17T19:08:46.112Z,37.82
2018-09-17T19:11:15.625Z,38.77
2018-09-17T19:13:48.457Z,38.45
2018-09-17T19:16:21.098Z,38.98
2018-09-17T19:18:50.250Z,39.17
2018-09-17T19:21:19.014Z,39.06
2018-09-17T19:23:52.726Z,39.59
2018-09-17T19:26:21.654Z,39.44
2018-09-17T19:28:55.245Z,39.58
2018-09-17T19:31:23.834Z,39.83
2018-09-17T19:33:53.167Z,40.35
2018-09-17T19:36:22.566Z,40.12
2018-09-17T19:38:56.894Z,40.69
2018-09-17T19:41:26.196Z,40.58
2018-09-17T19:43:54.809Z,40.60
2018-09-17T19:46:23.284Z,41.00
2018-09-17T19:48:52.755Z,41.35
2018-09-17T19:51:26.813Z,41.29
2018-09-17T19:53:55.775Z,41.63
2018-09-17T19:56:24.314Z,41.57
2018-09-17T19:58:58.721Z,42.03
2018-09-17T20:01:27.803Z,42.35
2018-09-17T20:03:56.435Z,42.66
2018-09-17T20:06:26.761Z,42.71
2018-09-17T20:08:55.426Z,42.48
2018-09-17T20:11:24.792Z,43.03
2018-09-17T20:13:54.192Z,42.66
2018-09-17T20:16:22.735Z,42.61
2018-09-17T20:18:51.395Z,42.88
2018-09-17T20:21:20.624Z,43.71
2018-09-17T20:23:49.883Z,43.64
2018-09-17T20:26:18.405Z,43.06
2018-09-17T20:28:48.230Z,43.59
2018-09-17T20:31:17.318Z,43.43
2018-09-17T20:33:45.899Z,43.72
2018-09-17T20:36:15.159Z,43.40
2018-09-17T20:38:43.719Z,43.94
2018-09-17T20:41:12.201Z,43.93
2018-09-17T20:43:41.245Z,44.12
2018-09-17T20:46:10.567Z,44.03
2018-09-17T20:48:39.680Z,44.73
2018-09-17T20:51:08.774Z,44.83
2018-09-17T20:53:37.996Z,44.72
2018-09-17T20:56:07.843Z,44.80
2018-09-17T20:58:36.933Z,44.89
2018-09-17T21:01:05.528Z,44.88
2018-09-17T21:03:35.069Z,45.39
2018-09-17T21:06:04.371Z,45.17
2018-09-17T21:08:33.547Z,45.51
2018-09-17T21:11:03.965Z,45.41
2018-09-17T21:13:33.070Z,45.33
2018-09-17T21:16:01.781Z,45.76
2018-09-17T21:18:30.484Z,46.18
2018-09-17T21:21:00.126Z,46.20
2018-09-17T21:23:29.304Z,46.34
2018-09-17T21:25:58.340Z,46.44
2018-09-17T21:28:27.387Z,46.13
2018-09-17T21:30:55.911Z,46.21
2018-09-17T21:33:24.349Z,46.46
2018-09-17T21:35:53.255Z,46.27
2018-09-17T21:38:22.589Z,46.80
2018-09-17T21:40:52.911Z,46.51
2018-09-17T21:43:22.263Z,46.57
2018-09-17T21:45:50.658Z,47.13
2018-09-17T21:48:19.207Z,46.67
2018-09-17T21:50:50.390Z,47.29
2018-09-17T21:53:18.927Z,47.21
2018-09-17T21:55:47.481Z,47.43
2018-09-17T21:58:16.447Z,47.31
2018-09-17T22:00:50.844Z,47.79
2018-09-17T22:03:20.194Z,47.61
2018-09-17T22:05:48.764Z,47.91
2018-09-17T22:08:17.290Z,47.93
2018-09-17T22:10:45.764Z,48.04
2018-09-17T22:13:14.892Z,48.69
2018-09-17T22:15:44.063Z,48.70
2018-09-17T22:18:12.525Z,48.29
2018-09-17T22:20:42.095Z,48.63
2018-09-17T22:23:11.157Z,48.99
2018-09-17T22:25:39.675Z,49.00
2018-09-17T22:28:08.304Z,48.88
2018-09-17T22:30:37.086Z,48.98
2018-09-17T22:33:06.084Z,49.43
2018-09-17T22:35:34.628Z,49.32
2018-09-17T22:38:03.162Z,49.60
2018-09-17T22:40:32.961Z,49.39
2018-09-17T22:43:01.887Z,49.45
2018-09-17T22:45:30.718Z,49.65
2018-09-17T22:47:59.187Z,49.51
2018-09-17T22:50:27.708Z,49.56
2018-09-17T22:52:56.143Z,49.75
2018-09-17T22:55:24.816Z,49.95
2018-09-17T22:57:53.284Z,50.42
2018-09-17T23:00:21.819Z,50.54
2018-09-17T23:02:50.308Z,50.57
2018-09-17T23:05:19.573Z,50.64
2018-09-17T23:07:47.992Z,50.34
2018-09-17T23:10:17.258Z,50.23
2018-09-17T23:12:45.925Z,50.39
2018-09-17T23:15:14.390Z,50.26
2018-09-17T23:17:42.844Z,50.44
2018-09-17T23:20:11.335Z,50.46
2018-09-17T23:22:39.866Z,50.82
2018-09-17T23:25:08.428Z,50.74
2018-09-17T23:27:36.917Z,50.99
2018-09-17T23:30:06.297Z,50.80
2018-09-17T23:32:35.451Z,50.70
2018-09-17T23:35:04.674Z,51.11
2018-09-17T23:37:33.787Z,51.52
2018-09-17T23:40:02.916Z,51.38
2018-09-17T23:42:32.259Z,51.24
2018-09-17T23:45:01.426Z,51.37
2018-09-17T23:47:30.808Z,51.11
2018-09-17T23:49:59.289Z,51.37
2018-09-17T23:52:28.065Z,51.65
2018-09-17T23:54:56.824Z,52.00
2018-09-17T23:57:25.906Z,51.80
2018-09-17T23:59:54.528Z,51.83
